createdAt,value
2022-09-06T00:00:03.854Z,100.00
2022-09-06T00:01:17.668Z,100.00
2022-09-06T00:02:20.217Z,100.00
2022-09-06T00:03:22.895Z,100.00
2022-09-06T00:04:25.285Z,100.00
2022-09-06T00:05:29.076Z,100.00
2022-09-06T00:06:31.696Z,100.00
2022-09-06T00:07:34.549Z,100.00
2022-09-06T00:08:37.180Z,100.00
2022-09-06T00:09:39.587Z,100.00
2022-09-06T00:10:43.015Z,100.00
2022-09-06T00:11:45.380Z,100.00
2022-09-06T00:12:47.935Z,100.00
2022-09-06T00:13:50.335Z,100.00
2022-09-06T00:14:52.714Z,100.00
2022-09-06T00:15:55.185Z,100.00
2022-09-06T00:16:57.567Z,100.00
2022-09-06T00:18:01.852Z,100.00
2022-09-06T00:19:04.182Z,100.00
2022-09-06T00:20:09.263Z,100.00
2022-09-06T00:21:23.351Z,100.00
2022-09-06T00:27:02.248Z,100.00
2022-09-06T00:28:05.657Z,100.00
2022-09-06T00:29:08.070Z,100.00
2022-09-06T00:30:10.980Z,100.00
2022-09-06T00:31:19.241Z,100.00
2022-09-06T00:32:21.574Z,100.00
2022-09-06T00:33:24.291Z,100.00
2022-09-06T00:34:27.273Z,100.00
2022-09-06T00:35:29.928Z,100.00
2022-09-06T00:36:32.256Z,100.00
2022-09-06T00:37:34.555Z,100.00
2022-09-06T00:38:38.043Z,100.00
2022-09-06T00:39:40.506Z,100.00
2022-09-06T00:40:43.260Z,100.00
2022-09-06T00:41:45.794Z,100.00
2022-09-06T00:42:48.061Z,100.00
2022-09-06T00:43:50.381Z,100.00
2022-09-06T00:44:52.795Z,100.00
2022-09-06T00:45:56.466Z,100.00
2022-09-06T00:46:58.864Z,100.00
2022-09-06T00:48:04.541Z,100.00
2022-09-06T00:49:13.124Z,100.00
2022-09-06T00:50:17.933Z,100.00
2022-09-06T00:51:22.083Z,100.00
2022-09-06T00:52:26.309Z,100.00
2022-09-06T00:53:30.411Z,100.00
2022-09-06T00:54:33.325Z,100.00
2022-09-06T00:55:35.871Z,100.00
2022-09-06T00:56:43.357Z,100.00
2022-09-06T00:57:50.805Z,100.00
2022-09-06T00:58:53.422Z,100.00
2022-09-06T00:59:56.492Z,100.00
2022-09-06T01:00:59.160Z,100.00
2022-09-06T01:02:01.850Z,100.00
2022-09-06T01:03:05.965Z,100.00
2022-09-06T01:04:08.862Z,100.00
2022-09-06T01:05:12.601Z,100.00
2022-09-06T01:06:14.888Z,100.00
2022-09-06T01:07:37.378Z,100.00
2022-09-06T01:08:48.555Z,100.00
2022-09-06T01:10:19.193Z,100.00
2022-09-06T01:11:45.259Z,100.00
2022-09-06T01:12:53.048Z,100.00
2022-09-06T01:14:10.470Z,100.00
2022-09-06T01:15:25.793Z,100.00
2022-09-06T01:16:44.602Z,100.00
2022-09-06T01:18:01.811Z,100.00
2022-09-06T01:19:35.848Z,100.00
2022-09-06T01:21:17.548Z,100.00
2022-09-06T01:22:41.216Z,100.00
2022-09-06T01:24:25.333Z,100.00
2022-09-06T01:25:33.818Z,100.00
2022-09-06T01:27:08.230Z,100.00
2022-09-06T01:28:41.289Z,100.00
2022-09-06T01:29:51.215Z,100.00
2022-09-06T01:31:18.184Z,100.00
2022-09-06T01:32:26.052Z,100.00
2022-09-06T01:33:41.030Z,100.00
2022-09-06T01:34:50.868Z,100.00
2022-09-06T01:36:00.235Z,100.00
2022-09-06T01:37:10.653Z,100.00
2022-09-06T01:38:14.644Z,100.00
2022-09-06T01:39:29.069Z,100.00
2022-09-06T01:40:35.671Z,100.00
2022-09-06T01:41:37.970Z,100.00
2022-09-06T01:42:42.350Z,100.00
2022-09-06T01:43:50.394Z,100.00
2022-09-06T01:45:02.779Z,100.00
2022-09-06T01:46:42.931Z,100.00
2022-09-06T01:48:03.760Z,100.00
2022-09-06T01:49:24.980Z,100.00
2022-09-06T01:51:02.117Z,100.00
2022-09-06T01:52:18.167Z,100.00
2022-09-06T01:53:41.902Z,100.00
2022-09-06T01:55:11.748Z,100.00
2022-09-06T01:56:51.561Z,100.00
2022-09-06T01:58:04.632Z,100.00
2022-09-06T01:59:12.551Z,100.00
2022-09-06T02:00:17.279Z,100.00
2022-09-06T02:01:32.033Z,100.00
2022-09-06T02:02:37.102Z,100.00
2022-09-06T02:03:52.433Z,100.00
2022-09-06T02:05:06.309Z,100.00
2022-09-06T02:06:24.132Z,100.00
2022-09-06T02:07:29.581Z,100.00
2022-09-06T02:08:49.602Z,100.00
2022-09-06T02:10:18.581Z,100.00
2022-09-06T02:11:22.934Z,100.00
2022-09-06T02:12:28.223Z,100.00
2022-09-06T02:13:35.809Z,100.00
2022-09-06T02:14:51.964Z,100.00
2022-09-06T02:16:02.273Z,100.00
2022-09-06T02:17:07.927Z,100.00
2022-09-06T02:18:18.919Z,100.00
2022-09-06T02:19:29.605Z,100.00
2022-09-06T02:20:35.279Z,100.00
2022-09-06T02:21:42.167Z,100.00
2022-09-06T02:22:48.023Z,100.00
2022-09-06T02:23:53.110Z,100.00
2022-09-06T02:24:57.820Z,100.00
2022-09-06T02:26:08.077Z,100.00
2022-09-06T02:27:12.008Z,100.00
2022-09-06T02:28:14.370Z,100.00
2022-09-06T02:29:17.641Z,100.00
2022-09-06T02:30:20.117Z,100.00
2022-09-06T02:31:29.403Z,100.00
2022-09-06T02:32:38.069Z,100.00
2022-09-06T02:33:43.865Z,100.00
2022-09-06T02:34:46.718Z,100.00
2022-09-06T02:35:52.036Z,100.00
2022-09-06T02:36:55.012Z,100.00
2022-09-06T02:37:57.423Z,100.00
2022-09-06T02:39:01.219Z,100.00
2022-09-06T02:40:04.575Z,100.00
2022-09-06T02:41:07.764Z,100.00
2022-09-06T02:42:12.943Z,100.00
2022-09-06T02:43:15.346Z,100.00
2022-09-06T02:44:17.870Z,100.00
2022-09-06T02:45:20.192Z,100.00
2022-09-06T02:46:24.312Z,100.00
2022-09-06T02:47:26.655Z,100.00
2022-09-06T02:48:29.102Z,100.00
2022-09-06T02:49:31.607Z,100.00
2022-09-06T02:50:33.943Z,100.00
2022-09-06T02:51:39.829Z,100.00
2022-09-06T02:52:42.198Z,100.00
2022-09-06T02:53:44.493Z,100.00
2022-09-06T02:54:47.048Z,100.00
2022-09-06T02:55:49.340Z,100.00
2022-09-06T02:56:52.616Z,100.00
2022-09-06T02:57:54.970Z,100.00
2022-09-06T02:58:57.332Z,100.00
2022-09-06T02:59:59.588Z,100.00
2022-09-06T03:01:02.129Z,100.00
2022-09-06T03:02:04.461Z,100.00
2022-09-06T03:03:07.233Z,100.00
2022-09-06T03:04:09.585Z,100.00
2022-09-06T03:05:11.877Z,100.00
2022-09-06T03:06:14.194Z,100.00
2022-09-06T03:07:16.475Z,100.00
2022-09-06T03:08:20.478Z,100.00
2022-09-06T03:09:22.839Z,100.00
2022-09-06T03:10:26.441Z,100.00
2022-09-06T03:11:28.796Z,100.00
2022-09-06T03:12:31.109Z,100.00
2022-09-06T03:13:33.415Z,100.00
2022-09-06T03:14:36.084Z,100.00
2022-09-06T03:15:38.405Z,100.00
2022-09-06T03:16:40.834Z,100.00
2022-09-06T03:17:44.024Z,100.00
2022-09-06T03:18:46.925Z,100.00
2022-09-06T03:19:49.382Z,100.00
2022-09-06T03:20:53.361Z,100.00
2022-09-06T03:21:55.675Z,100.00
2022-09-06T03:22:57.980Z,100.00
2022-09-06T03:24:00.318Z,100.00
2022-09-06T03:25:02.720Z,100.00
2022-09-06T03:26:05.890Z,100.00
2022-09-06T03:27:08.214Z,100.00
2022-09-06T03:28:10.576Z,100.00
2022-09-06T03:29:13.138Z,100.00
2022-09-06T03:30:15.452Z,100.00
2022-09-06T03:31:17.800Z,100.00
2022-09-06T03:32:20.228Z,100.00
2022-09-06T03:33:22.778Z,100.00
2022-09-06T03:34:25.385Z,100.00
2022-09-06T03:35:27.736Z,100.00
2022-09-06T03:36:30.056Z,100.00
2022-09-06T03:37:32.855Z,100.00
2022-09-06T03:38:35.168Z,100.00
2022-09-06T03:39:37.699Z,100.00
2022-09-06T03:40:40.023Z,100.00
2022-09-06T03:41:42.417Z,100.00
2022-09-06T03:42:46.477Z,100.00
2022-09-06T03:43:48.823Z,100.00
2022-09-06T03:44:51.339Z,100.00
2022-09-06T03:45:57.087Z,100.00
2022-09-06T03:46:59.549Z,100.00
2022-09-06T03:48:01.976Z,100.00
2022-09-06T03:49:04.315Z,100.00
2022-09-06T03:50:07.559Z,100.00
2022-09-06T03:51:09.880Z,100.00
2022-09-06T03:52:12.196Z,100.00
2022-09-06T03:53:15.623Z,100.00
2022-09-06T03:54:17.960Z,100.00
2022-09-06T03:55:20.416Z,100.00
2022-09-06T03:56:22.722Z,100.00
2022-09-06T03:57:25.052Z,100.00
2022-09-06T03:58:31.832Z,100.00
2022-09-06T03:59:34.132Z,100.00
2022-09-06T04:00:36.508Z,100.00
2022-09-06T04:01:38.861Z,100.00
2022-09-06T04:02:41.337Z,100.00
2022-09-06T04:03:43.686Z,100.00
2022-09-06T04:04:46.356Z,100.00
2022-09-06T04:05:48.713Z,100.00
2022-09-06T04:06:50.993Z,100.00
2022-09-06T04:07:53.337Z,100.00
2022-09-06T04:08:55.781Z,100.00
2022-09-06T04:09:58.019Z,100.00
2022-09-06T04:11:00.331Z,100.00
2022-09-06T04:12:02.943Z,100.00
2022-09-06T04:13:05.208Z,100.00
2022-09-06T04:14:07.484Z,100.00
2022-09-06T04:15:10.130Z,100.00
2022-09-06T04:16:12.797Z,100.00
2022-09-06T04:17:15.289Z,100.00
2022-09-06T04:18:17.897Z,100.00
2022-09-06T04:19:20.333Z,100.00
2022-09-06T04:20:22.659Z,100.00
2022-09-06T04:21:25.019Z,100.00
2022-09-06T04:22:27.340Z,100.00
2022-09-06T04:23:29.839Z,100.00
2022-09-06T04:24:32.931Z,100.00
2022-09-06T04:25:35.267Z,100.00
2022-09-06T04:26:37.699Z,100.00
2022-09-06T04:27:39.968Z,100.00
2022-09-06T04:28:42.228Z,100.00
2022-09-06T04:29:44.610Z,100.00
2022-09-06T04:31:04.546Z,100.00
2022-09-06T04:32:07.655Z,100.00
2022-09-06T04:33:10.040Z,100.00
2022-09-06T04:34:12.367Z,100.00
2022-09-06T04:35:14.779Z,100.00
2022-09-06T04:36:17.134Z,100.00
2022-09-06T04:37:20.096Z,100.00
2022-09-06T04:38:24.080Z,100.00
2022-09-06T04:39:26.462Z,100.00
2022-09-06T04:40:28.838Z,100.00
2022-09-06T04:41:31.153Z,100.00
2022-09-06T04:42:33.731Z,100.00
2022-09-06T04:43:36.167Z,100.00
2022-09-06T04:44:38.638Z,100.00
2022-09-06T04:45:42.151Z,100.00
2022-09-06T04:46:44.809Z,100.00
2022-09-06T04:47:47.343Z,100.00
2022-09-06T04:48:50.069Z,100.00
2022-09-06T04:49:53.627Z,100.00
2022-09-06T04:50:56.187Z,100.00
2022-09-06T04:51:58.533Z,100.00
2022-09-06T04:53:00.884Z,100.00
2022-09-06T04:54:04.497Z,100.00
2022-09-06T04:55:08.505Z,100.00
2022-09-06T04:56:16.882Z,100.00
2022-09-06T04:57:19.313Z,100.00
2022-09-06T04:58:21.673Z,100.00
2022-09-06T04:59:24.256Z,100.00
2022-09-06T05:00:27.587Z,100.00
2022-09-06T05:01:30.025Z,100.00
2022-09-06T05:02:32.603Z,100.00
2022-09-06T05:03:35.145Z,100.00
2022-09-06T05:04:37.534Z,100.00
2022-09-06T05:05:39.893Z,100.00
2022-09-06T05:06:42.944Z,100.00
2022-09-06T05:07:45.355Z,100.00
2022-09-06T05:08:48.524Z,100.00
2022-09-06T05:09:50.912Z,100.00
2022-09-06T05:10:53.238Z,100.00
2022-09-06T05:11:56.180Z,100.00
2022-09-06T05:12:58.514Z,100.00
2022-09-06T05:14:00.919Z,100.00
2022-09-06T05:15:03.338Z,100.00
2022-09-06T05:16:07.586Z,100.00
2022-09-06T05:17:10.129Z,100.00
2022-09-06T05:18:16.032Z,100.00
2022-09-06T05:19:19.171Z,100.00
2022-09-06T05:20:21.662Z,100.00
2022-09-06T05:21:24.030Z,100.00
2022-09-06T05:22:26.440Z,100.00
2022-09-06T05:23:29.372Z,100.00
2022-09-06T05:24:31.724Z,100.00
2022-09-06T05:25:34.046Z,100.00
2022-09-06T05:26:36.447Z,100.00
2022-09-06T05:27:38.783Z,100.00
2022-09-06T05:28:41.286Z,100.00
2022-09-06T05:29:43.732Z,100.00
2022-09-06T05:30:46.945Z,100.00
2022-09-06T05:31:49.425Z,100.00
2022-09-06T05:32:52.010Z,100.00
2022-09-06T05:33:55.207Z,100.00
2022-09-06T05:34:57.595Z,100.00
2022-09-06T05:36:00.191Z,100.00
2022-09-06T05:37:02.625Z,100.00
2022-09-06T05:38:05.371Z,100.00
2022-09-06T05:39:07.842Z,100.00
2022-09-06T05:40:11.437Z,100.00
2022-09-06T05:41:13.764Z,100.00
2022-09-06T05:42:19.250Z,100.00
2022-09-06T05:43:21.865Z,100.00
2022-09-06T05:44:24.595Z,100.00
2022-09-06T05:45:26.925Z,100.00
2022-09-06T05:46:29.409Z,100.00
2022-09-06T05:47:35.272Z,100.00
2022-09-06T05:48:38.022Z,100.00
2022-09-06T05:49:40.521Z,100.00
2022-09-06T05:50:42.819Z,100.00
2022-09-06T05:51:49.813Z,100.00
2022-09-06T05:52:54.119Z,100.00
2022-09-06T05:53:56.705Z,100.00
2022-09-06T05:54:59.034Z,100.00
2022-09-06T05:56:01.482Z,100.00
2022-09-06T05:57:03.982Z,100.00
2022-09-06T05:58:06.340Z,100.00
2022-09-06T05:59:08.754Z,100.00
2022-09-06T06:00:12.315Z,100.00
2022-09-06T06:01:18.929Z,100.00
2022-09-06T06:02:22.515Z,100.00
2022-09-06T06:03:25.005Z,100.00
2022-09-06T06:04:27.339Z,100.00
2022-09-06T06:05:29.734Z,100.00
2022-09-06T06:06:34.426Z,100.00
2022-09-06T06:07:36.840Z,100.00
2022-09-06T06:08:39.726Z,100.00
2022-09-06T06:09:42.232Z,100.00
2022-09-06T06:10:44.647Z,100.00
2022-09-06T06:11:47.041Z,100.00
2022-09-06T06:12:49.982Z,100.00
2022-09-06T06:13:54.256Z,100.00
2022-09-06T06:14:56.569Z,100.00
2022-09-06T06:15:59.401Z,100.00
2022-09-06T06:17:02.663Z,100.00
2022-09-06T06:18:05.396Z,100.00
2022-09-06T06:19:08.219Z,100.00
2022-09-06T06:20:11.414Z,100.00
2022-09-06T06:21:16.259Z,100.00
2022-09-06T06:22:19.095Z,100.00
2022-09-06T06:23:22.335Z,100.00
2022-09-06T06:24:25.959Z,100.00
2022-09-06T06:25:29.915Z,100.00
2022-09-06T06:26:35.127Z,100.00
2022-09-06T06:27:37.877Z,100.00
2022-09-06T06:28:41.279Z,100.00
2022-09-06T06:29:43.962Z,100.00
2022-09-06T06:30:46.839Z,100.00
2022-09-06T06:31:49.530Z,100.00
2022-09-06T06:32:52.230Z,100.00
2022-09-06T06:33:55.286Z,100.00
2022-09-06T06:34:58.090Z,100.00
2022-09-06T06:36:05.523Z,100.00
2022-09-06T06:37:07.911Z,100.00
2022-09-06T06:38:10.257Z,100.00
2022-09-06T06:39:13.198Z,100.00
2022-09-06T06:40:16.879Z,100.00
2022-09-06T06:41:24.112Z,100.00
2022-09-06T06:42:26.855Z,100.00
2022-09-06T06:43:38.752Z,100.00
2022-09-06T06:44:41.710Z,100.00
2022-09-06T06:45:50.075Z,100.00
2022-09-06T06:46:52.971Z,100.00
2022-09-06T06:47:55.527Z,100.00
2022-09-06T06:48:58.417Z,100.00
2022-09-06T06:50:01.482Z,100.00
2022-09-06T06:51:04.132Z,100.00
2022-09-06T06:52:07.014Z,100.00
2022-09-06T06:53:09.472Z,100.00
2022-09-06T06:54:11.988Z,100.00
2022-09-06T06:55:15.119Z,100.00
2022-09-06T06:56:19.845Z,100.00
2022-09-06T06:57:22.515Z,100.00
2022-09-06T06:58:25.199Z,100.00
2022-09-06T06:59:27.976Z,100.00
2022-09-06T07:00:30.430Z,100.00
2022-09-06T07:01:35.180Z,100.00
2022-09-06T07:02:37.804Z,100.00
2022-09-06T07:03:40.218Z,100.00
2022-09-06T07:04:42.751Z,100.00
2022-09-06T07:08:33.404Z,100.00
2022-09-06T07:10:59.575Z,100.00
2022-09-06T07:12:02.165Z,100.00
2022-09-06T07:13:05.010Z,100.00
2022-09-06T07:14:07.402Z,100.00
2022-09-06T07:15:09.965Z,100.00
2022-09-06T07:16:15.551Z,100.00
2022-09-06T07:17:18.043Z,100.00
2022-09-06T07:18:20.398Z,100.00
2022-09-06T07:22:11.826Z,100.00
2022-09-06T07:24:39.404Z,100.00
2022-09-06T07:25:44.414Z,100.00
2022-09-06T07:28:09.334Z,100.00
2022-09-06T07:29:11.746Z,100.00
2022-09-06T07:30:14.323Z,100.00
2022-09-06T07:32:39.104Z,100.00
2022-09-06T07:33:41.540Z,100.00
2022-09-06T07:34:44.163Z,100.00
2022-09-06T07:36:00.374Z,100.00
2022-09-06T07:37:02.808Z,100.00
2022-09-06T07:38:06.471Z,100.00
2022-09-06T07:39:09.206Z,100.00
2022-09-06T07:40:11.728Z,100.00
2022-09-06T07:41:14.189Z,100.00
2022-09-06T07:42:16.605Z,100.00
2022-09-06T07:43:18.893Z,100.00
2022-09-06T07:44:21.415Z,100.00
2022-09-06T07:45:24.464Z,100.00
2022-09-06T07:46:26.978Z,100.00
2022-09-06T07:48:51.950Z,100.00
2022-09-06T07:51:19.650Z,100.00
2022-09-06T07:54:12.791Z,100.00
2022-09-06T07:55:18.334Z,100.00
2022-09-06T07:56:22.526Z,100.00
2022-09-06T07:57:24.954Z,100.00
2022-09-06T07:58:29.018Z,100.00
2022-09-06T07:59:31.563Z,100.00
2022-09-06T08:00:34.057Z,100.00
2022-09-06T08:01:39.539Z,100.00
2022-09-06T08:02:42.011Z,100.00
2022-09-06T08:03:45.772Z,100.00
2022-09-06T08:04:51.524Z,100.00
2022-09-06T08:06:10.561Z,100.00
2022-09-06T08:09:58.231Z,100.00
2022-09-06T08:11:24.116Z,100.00
2022-09-06T08:12:27.842Z,100.00
2022-09-06T08:13:30.341Z,100.00
2022-09-06T08:14:33.646Z,100.00
2022-09-06T08:15:35.997Z,100.00
2022-09-06T08:16:39.253Z,100.00
2022-09-06T08:17:41.802Z,100.00
2022-09-06T08:18:44.444Z,100.00
2022-09-06T08:19:46.939Z,100.00
2022-09-06T08:20:49.242Z,100.00
2022-09-06T08:21:55.032Z,100.00
2022-09-06T08:22:57.292Z,100.00
2022-09-06T08:24:01.617Z,100.00
2022-09-06T08:25:04.158Z,100.00
2022-09-06T08:26:06.529Z,100.00
2022-09-06T08:27:08.894Z,100.00
2022-09-06T08:28:11.345Z,100.00
2022-09-06T08:29:14.315Z,100.00
2022-09-06T08:30:16.772Z,100.00
2022-09-06T08:31:19.715Z,100.00
2022-09-06T08:32:22.064Z,100.00
2022-09-06T08:33:25.647Z,100.00
2022-09-06T08:34:28.142Z,100.00
2022-09-06T08:35:30.567Z,100.00
2022-09-06T08:36:33.941Z,100.00
2022-09-06T08:37:37.106Z,100.00
2022-09-06T08:38:41.421Z,100.00
2022-09-06T08:39:43.946Z,100.00
2022-09-06T08:40:46.407Z,100.00
2022-09-06T08:42:00.208Z,100.00
2022-09-06T08:43:23.070Z,100.00
2022-09-06T08:44:55.532Z,100.00
2022-09-06T08:46:19.270Z,100.00
2022-09-06T08:47:40.582Z,100.00
2022-09-06T08:48:43.815Z,100.00
2022-09-06T08:49:54.651Z,100.00
2022-09-06T08:51:23.470Z,100.00
2022-09-06T08:53:16.156Z,100.00
2022-09-06T08:54:36.898Z,100.00
2022-09-06T08:55:43.267Z,100.00
2022-09-06T08:57:31.253Z,100.00
2022-09-06T08:59:05.280Z,100.00
2022-09-06T09:00:12.520Z,100.00
2022-09-06T09:01:19.539Z,100.00
2022-09-06T09:02:22.361Z,100.00
2022-09-06T09:03:36.851Z,100.00
2022-09-06T09:04:53.385Z,100.00
2022-09-06T09:05:56.521Z,100.00
2022-09-06T09:07:06.955Z,100.00
2022-09-06T09:08:32.975Z,100.00
2022-09-06T09:09:36.011Z,100.00
2022-09-06T09:10:46.064Z,100.00
2022-09-06T09:11:51.459Z,100.00
2022-09-06T09:12:54.549Z,100.00
2022-09-06T09:14:04.110Z,100.00
2022-09-06T09:15:10.678Z,100.00
2022-09-06T09:16:18.229Z,100.00
2022-09-06T09:17:29.236Z,100.00
2022-09-06T09:18:36.968Z,100.00
2022-09-06T09:19:41.631Z,100.00
2022-09-06T09:20:44.212Z,100.00
2022-09-06T09:21:47.070Z,100.00
2022-09-06T09:22:49.698Z,100.00
2022-09-06T09:23:55.636Z,100.00
2022-09-06T09:24:59.997Z,100.00
2022-09-06T09:26:07.819Z,100.00
2022-09-06T09:27:12.665Z,100.00
2022-09-06T09:28:20.365Z,100.00
2022-09-06T09:29:27.507Z,100.00
2022-09-06T09:30:50.057Z,100.00
2022-09-06T09:31:54.701Z,100.00
2022-09-06T09:32:57.256Z,100.00
2022-09-06T09:34:02.793Z,100.00
2022-09-06T09:35:21.849Z,100.00
2022-09-06T09:36:24.383Z,100.00
2022-09-06T09:38:52.937Z,100.00
2022-09-06T09:39:57.924Z,100.00
2022-09-06T09:41:05.438Z,100.00
2022-09-06T09:42:09.398Z,100.00
2022-09-06T09:43:16.876Z,100.00
2022-09-06T09:44:44.849Z,100.00
2022-09-06T09:46:13.166Z,100.00
2022-09-06T09:47:28.642Z,100.00
2022-09-06T09:48:31.362Z,100.00
2022-09-06T09:49:35.090Z,100.00
2022-09-06T09:50:37.468Z,100.00
2022-09-06T09:51:46.574Z,100.00
2022-09-06T09:52:49.045Z,100.00
2022-09-06T09:54:05.382Z,100.00
2022-09-06T09:55:10.803Z,100.00
2022-09-06T09:56:15.686Z,100.00
2022-09-06T09:57:19.410Z,100.00
2022-09-06T09:58:31.365Z,100.00
2022-09-06T09:59:36.455Z,100.00
2022-09-06T10:00:40.497Z,100.00
2022-09-06T10:01:42.950Z,100.00
2022-09-06T10:02:45.357Z,100.00
2022-09-06T10:05:12.924Z,100.00
2022-09-06T10:07:47.322Z,100.00
2022-09-06T10:08:49.984Z,100.00
2022-09-06T10:10:04.953Z,100.00
2022-09-06T10:11:07.514Z,100.00
2022-09-06T10:12:35.885Z,100.00
2022-09-06T10:13:39.229Z,100.00
2022-09-06T10:14:44.634Z,100.00
2022-09-06T10:15:48.442Z,100.00
2022-09-06T10:16:53.913Z,100.00
2022-09-06T10:17:58.379Z,100.00
2022-09-06T10:19:23.388Z,100.00
2022-09-06T10:20:49.590Z,100.00
2022-09-06T10:22:00.117Z,100.00
2022-09-06T10:25:11.035Z,100.00
2022-09-06T10:26:13.763Z,100.00
2022-09-06T10:27:25.703Z,100.00
2022-09-06T10:28:32.235Z,100.00
2022-09-06T10:29:45.055Z,100.00
2022-09-06T10:30:59.802Z,100.00
2022-09-06T10:32:21.414Z,100.00
2022-09-06T10:33:33.483Z,100.00
2022-09-06T10:34:53.611Z,100.00
2022-09-06T10:36:00.735Z,100.00
2022-09-06T10:37:30.626Z,100.00
2022-09-06T10:38:48.342Z,100.00
2022-09-06T10:40:03.079Z,100.00
2022-09-06T10:41:30.896Z,100.00
2022-09-06T10:42:54.054Z,100.00
2022-09-06T10:44:14.812Z,100.00
2022-09-06T10:45:41.684Z,100.00
2022-09-06T10:46:45.829Z,100.00
2022-09-06T10:47:59.533Z,100.00
2022-09-06T10:49:02.176Z,100.00
2022-09-06T10:50:06.231Z,100.00
2022-09-06T10:51:22.680Z,100.00
2022-09-06T10:52:41.713Z,100.00
2022-09-06T10:53:57.230Z,100.00
2022-09-06T10:55:04.943Z,100.00
2022-09-06T10:56:13.813Z,100.00
2022-09-06T11:00:28.114Z,100.00
2022-09-06T11:01:37.724Z,100.00
2022-09-06T11:06:20.723Z,100.00
2022-09-06T11:09:22.948Z,100.00
2022-09-06T11:10:37.939Z,100.00
2022-09-06T11:11:54.506Z,100.00
2022-09-06T11:13:20.613Z,100.00
2022-09-06T11:14:27.624Z,100.00
2022-09-06T11:15:43.132Z,100.00
2022-09-06T11:16:57.992Z,100.00
2022-09-06T11:18:33.573Z,100.00
2022-09-06T11:20:10.153Z,100.00
2022-09-06T11:21:19.638Z,100.00
2022-09-06T11:23:01.450Z,100.00
2022-09-06T11:24:13.655Z,100.00
2022-09-06T11:25:22.261Z,100.00
2022-09-06T11:26:36.670Z,100.00
2022-09-06T11:27:42.520Z,100.00
2022-09-06T11:28:48.997Z,100.00
2022-09-06T11:29:56.460Z,100.00
2022-09-06T11:30:59.216Z,100.00
2022-09-06T11:32:20.326Z,100.00
2022-09-06T11:33:31.645Z,100.00
2022-09-06T11:34:35.289Z,100.00
2022-09-06T11:35:39.721Z,100.00
2022-09-06T11:36:50.979Z,100.00
2022-09-06T11:38:00.531Z,100.00
2022-09-06T11:39:06.482Z,100.00
2022-09-06T11:40:32.626Z,100.00
2022-09-06T11:41:39.656Z,100.00
2022-09-06T11:43:03.039Z,100.00
2022-09-06T11:44:07.408Z,100.00
2022-09-06T11:45:21.093Z,100.00
2022-09-06T11:46:35.564Z,100.00
2022-09-06T11:47:49.227Z,100.00
2022-09-06T11:49:32.684Z,100.00
2022-09-06T11:50:53.456Z,100.00
2022-09-06T11:51:56.006Z,100.00
2022-09-06T11:53:12.756Z,100.00
2022-09-06T11:54:15.287Z,100.00
2022-09-06T11:55:22.703Z,100.00
2022-09-06T11:56:32.698Z,100.00
2022-09-06T11:57:35.320Z,100.00
2022-09-06T11:58:40.327Z,100.00
2022-09-06T11:59:45.739Z,100.00
2022-09-06T12:01:15.157Z,100.00
2022-09-06T12:02:39.196Z,100.00
2022-09-06T12:05:07.349Z,100.00
2022-09-06T12:06:16.855Z,100.00
2022-09-06T12:07:19.662Z,100.00
2022-09-06T12:08:33.638Z,100.00
2022-09-06T12:09:44.280Z,100.00
2022-09-06T12:10:59.744Z,100.00
2022-09-06T12:12:03.517Z,100.00
2022-09-06T12:13:39.617Z,100.00
2022-09-06T12:14:46.793Z,100.00
2022-09-06T12:15:54.877Z,100.00
2022-09-06T12:17:05.087Z,100.00
2022-09-06T12:18:07.736Z,100.00
2022-09-06T12:19:44.865Z,100.00
2022-09-06T12:20:53.227Z,100.00
2022-09-06T12:21:55.538Z,100.00
2022-09-06T12:22:58.043Z,100.00
2022-09-06T12:24:02.074Z,100.00
2022-09-06T12:25:36.798Z,100.00
2022-09-06T12:26:55.328Z,100.00
2022-09-06T12:28:04.122Z,98.11
2022-09-06T12:29:10.902Z,100.00
2022-09-06T12:30:31.090Z,100.00
2022-09-06T12:31:44.309Z,96.58
2022-09-06T12:32:49.532Z,94.37
2022-09-06T12:33:52.586Z,92.52
2022-09-06T12:36:30.555Z,97.29
2022-09-06T12:37:48.974Z,97.57
2022-09-06T12:38:58.577Z,98.72
2022-09-06T12:40:01.727Z,99.87
2022-09-06T12:41:04.662Z,100.00
2022-09-06T12:42:12.136Z,100.00
2022-09-06T12:43:16.945Z,99.67
2022-09-06T12:44:29.060Z,99.34
2022-09-06T12:45:31.708Z,98.97
2022-09-06T12:46:35.120Z,99.71
2022-09-06T12:47:40.057Z,98.79
2022-09-06T12:48:44.613Z,97.72
2022-09-06T12:49:47.279Z,96.80
2022-09-06T12:51:04.916Z,95.45
2022-09-06T12:52:25.407Z,100.00
2022-09-06T12:53:31.520Z,100.00
2022-09-06T12:54:33.874Z,99.25
2022-09-06T12:55:38.484Z,95.05
2022-09-06T12:56:40.864Z,95.45
2022-09-06T12:57:54.955Z,100.00
2022-09-06T12:59:20.268Z,100.00
2022-09-06T13:00:25.483Z,97.71
2022-09-06T13:01:34.750Z,96.37
2022-09-06T13:02:52.868Z,95.85
2022-09-06T13:03:55.586Z,95.42
2022-09-06T13:05:07.465Z,91.95
2022-09-06T13:06:16.251Z,91.97
2022-09-06T13:07:22.503Z,95.41
2022-09-06T13:08:38.665Z,99.19
2022-09-06T13:09:46.890Z,96.23
2022-09-06T13:10:49.248Z,100.00
2022-09-06T13:11:52.852Z,95.79
2022-09-06T13:12:58.418Z,94.56
2022-09-06T13:14:13.815Z,93.66
2022-09-06T13:15:35.089Z,94.09
2022-09-06T13:16:43.973Z,93.28
2022-09-06T13:17:47.148Z,90.14
2022-09-06T13:18:49.593Z,90.42
2022-09-06T13:19:51.983Z,93.19
2022-09-06T13:21:14.163Z,97.25
2022-09-06T13:22:38.596Z,99.01
2022-09-06T13:23:50.340Z,98.97
2022-09-06T13:24:56.458Z,94.29
2022-09-06T13:25:58.823Z,94.19
2022-09-06T13:27:21.532Z,94.79
2022-09-06T13:28:31.822Z,92.19
2022-09-06T13:29:34.116Z,90.98
2022-09-06T13:30:49.055Z,91.23
2022-09-06T13:31:56.949Z,90.55
2022-09-06T13:33:00.260Z,95.98
2022-09-06T13:34:02.613Z,95.62
2022-09-06T13:35:05.132Z,90.95
2022-09-06T13:36:13.384Z,93.18
2022-09-06T13:37:39.495Z,93.24
2022-09-06T13:38:43.394Z,92.75
2022-09-06T13:39:46.200Z,92.86
2022-09-06T13:41:11.593Z,96.81
2022-09-06T13:42:30.824Z,94.48
2022-09-06T13:43:43.937Z,93.13
2022-09-06T13:44:46.457Z,94.21
2022-09-06T13:45:48.783Z,94.39
2022-09-06T13:46:55.253Z,94.41
2022-09-06T13:48:13.204Z,92.73
2022-09-06T13:49:20.348Z,91.10
2022-09-06T13:50:27.692Z,88.78
2022-09-06T13:51:30.284Z,87.75
2022-09-06T13:52:33.137Z,87.22
2022-09-06T13:53:36.094Z,85.71
2022-09-06T13:54:39.102Z,86.93
2022-09-06T13:55:41.454Z,87.98
2022-09-06T13:56:44.708Z,87.99
2022-09-06T13:57:47.016Z,87.80
2022-09-06T13:58:49.606Z,89.00
2022-09-06T13:59:52.635Z,87.75
2022-09-06T14:00:55.519Z,87.23
2022-09-06T14:02:09.275Z,84.76
2022-09-06T14:03:20.082Z,83.69
2022-09-06T14:04:22.487Z,83.32
2022-09-06T14:05:24.815Z,82.54
2022-09-06T14:06:27.214Z,82.31
2022-09-06T14:07:29.665Z,83.67
2022-09-06T14:08:55.805Z,85.38
2022-09-06T14:09:54.674Z,85.44
2022-09-06T14:10:57.040Z,84.53
2022-09-06T14:11:59.562Z,82.70
2022-09-06T14:13:01.963Z,81.54
2022-09-06T14:14:04.816Z,80.94
2022-09-06T14:15:07.458Z,79.22
2022-09-06T14:16:10.903Z,78.46
2022-09-06T14:17:13.395Z,80.74
2022-09-06T14:18:16.456Z,84.70
2022-09-06T14:19:18.828Z,84.44
2022-09-06T14:20:21.465Z,83.04
2022-09-06T14:21:23.929Z,84.43
2022-09-06T14:22:26.351Z,83.07
2022-09-06T14:23:28.705Z,83.77
2022-09-06T14:24:31.179Z,87.49
2022-09-06T14:25:37.659Z,89.44
2022-09-06T14:26:40.043Z,88.86
2022-09-06T14:27:42.399Z,88.27
2022-09-06T14:28:45.508Z,92.09
2022-09-06T14:29:49.461Z,100.00
2022-09-06T14:30:52.931Z,100.00
2022-09-06T14:31:55.437Z,100.00
2022-09-06T14:32:58.087Z,100.00
2022-09-06T14:34:02.211Z,100.00
2022-09-06T14:35:05.907Z,100.00
2022-09-06T14:36:10.821Z,100.00
2022-09-06T14:37:13.784Z,100.00
2022-09-06T14:38:16.314Z,100.00
2022-09-06T14:39:18.717Z,100.00
2022-09-06T14:40:21.186Z,100.00